sensor_id;sensor_type;location;lat;lon;timestamp;pressure;altitude;pressure_sealevel;temperature;humidity
72096;BME280;59968;51.084;16.748;2024-02-15T00:00:09;100651.73;;;10.50;70.85
72096;BME280;59968;51.084;16.748;2024-02-15T00:03:01;100653.69;;;10.55;70.70
72096;BME280;59968;51.084;16.748;2024-02-15T00:05:43;100650.80;;;10.58;70.73
72096;BME280;59968;51.084;16.748;2024-02-15T00:08:14;100649.39;;;10.60;70.68
72096;BME280;59968;51.084;16.748;2024-02-15T00:10:44;100651.26;;;10.62;70.58
72096;BME280;59968;51.084;16.748;2024-02-15T00:13:15;100646.59;;;10.62;70.64
72096;BME280;59968;51.084;16.748;2024-02-15T00:15:43;100652.20;;;10.65;70.62
72096;BME280;59968;51.084;16.748;2024-02-15T00:18:14;100650.92;;;10.64;70.63
72096;BME280;59968;51.084;16.748;2024-02-15T00:20:43;100654.94;;;10.66;70.58
72096;BME280;59968;51.084;16.748;2024-02-15T00:23:12;100656.14;;;10.71;70.51
72096;BME280;59968;51.084;16.748;2024-02-15T00:25:41;100659.92;;;10.72;70.45
72096;BME280;59968;51.084;16.748;2024-02-15T00:28:13;100659.08;;;10.72;70.52
72096;BME280;59968;51.084;16.748;2024-02-15T00:30:42;100657.58;;;10.73;70.50
72096;BME280;59968;51.084;16.748;2024-02-15T00:33:14;100658.50;;;10.74;70.50
72096;BME280;59968;51.084;16.748;2024-02-15T00:35:43;100656.73;;;10.73;70.49
72096;BME280;59968;51.084;16.748;2024-02-15T00:38:12;100656.02;;;10.72;70.51
72096;BME280;59968;51.084;16.748;2024-02-15T00:40:41;100657.66;;;10.71;70.53
72096;BME280;59968;51.084;16.748;2024-02-15T00:43:09;100661.57;;;10.70;70.46
72096;BME280;59968;51.084;16.748;2024-02-15T00:45:39;100664.45;;;10.71;70.50
72096;BME280;59968;51.084;16.748;2024-02-15T00:48:11;100660.04;;;10.71;70.67
72096;BME280;59968;51.084;16.748;2024-02-15T00:50:41;100664.20;;;10.70;70.77
72096;BME280;59968;51.084;16.748;2024-02-15T00:53:10;100665.62;;;10.68;70.99
72096;BME280;59968;51.084;16.748;2024-02-15T00:55:39;100667.98;;;10.69;71.20
72096;BME280;59968;51.084;16.748;2024-02-15T00:58:08;100667.64;;;10.70;71.18
72096;BME280;59968;51.084;16.748;2024-02-15T01:00:37;100664.66;;;10.72;71.25
72096;BME280;59968;51.084;16.748;2024-02-15T01:03:09;100663.57;;;10.74;71.41
72096;BME280;59968;51.084;16.748;2024-02-15T01:05:37;100664.65;;;10.80;71.17
72096;BME280;59968;51.084;16.748;2024-02-15T01:08:06;100661.34;;;10.83;71.13
72096;BME280;59968;51.084;16.748;2024-02-15T01:10:39;100662.81;;;10.86;71.07
72096;BME280;59968;51.084;16.748;2024-02-15T01:13:08;100651.66;;;10.79;71.16
72096;BME280;59968;51.084;16.748;2024-02-15T01:15:38;100651.59;;;10.80;71.28
72096;BME280;59968;51.084;16.748;2024-02-15T01:18:13;100644.84;;;10.78;71.34
72096;BME280;59968;51.084;16.748;2024-02-15T01:20:42;100640.38;;;10.80;71.34
72096;BME280;59968;51.084;16.748;2024-02-15T01:23:11;100636.98;;;10.79;71.18
72096;BME280;59968;51.084;16.748;2024-02-15T01:25:39;100633.98;;;10.79;71.20
72096;BME280;59968;51.084;16.748;2024-02-15T01:28:11;100627.83;;;10.79;71.15
72096;BME280;59968;51.084;16.748;2024-02-15T01:30:43;100630.91;;;10.76;71.25
72096;BME280;59968;51.084;16.748;2024-02-15T01:33:12;100631.64;;;10.80;71.03
72096;BME280;59968;51.084;16.748;2024-02-15T01:35:44;100630.46;;;10.78;71.05
72096;BME280;59968;51.084;16.748;2024-02-15T01:38:13;100632.71;;;10.80;71.07
72096;BME280;59968;51.084;16.748;2024-02-15T01:40:42;100631.85;;;10.81;71.06
72096;BME280;59968;51.084;16.748;2024-02-15T01:43:11;100633.82;;;10.79;70.99
72096;BME280;59968;51.084;16.748;2024-02-15T01:45:39;100634.61;;;10.75;71.32
72096;BME280;59968;51.084;16.748;2024-02-15T01:48:09;100630.36;;;10.81;71.18
72096;BME280;59968;51.084;16.748;2024-02-15T01:50:39;100628.11;;;10.82;71.05
72096;BME280;59968;51.084;16.748;2024-02-15T01:53:09;100627.19;;;10.81;71.04
72096;BME280;59968;51.084;16.748;2024-02-15T01:55:39;100628.02;;;10.81;71.15
72096;BME280;59968;51.084;16.748;2024-02-15T01:58:08;100627.16;;;10.77;71.35
72096;BME280;59968;51.084;16.748;2024-02-15T02:00:40;100625.74;;;10.82;71.18
72096;BME280;59968;51.084;16.748;2024-02-15T02:03:10;100623.92;;;10.82;71.14
72096;BME280;59968;51.084;16.748;2024-02-15T02:05:42;100618.98;;;10.80;71.23
72096;BME280;59968;51.084;16.748;2024-02-15T02:08:11;100623.64;;;10.82;71.18
72096;BME280;59968;51.084;16.748;2024-02-15T02:10:40;100618.63;;;10.81;71.20
72096;BME280;59968;51.084;16.748;2024-02-15T02:13:09;100617.13;;;10.82;71.32
72096;BME280;59968;51.084;16.748;2024-02-15T02:15:38;100611.69;;;10.85;71.32
72096;BME280;59968;51.084;16.748;2024-02-15T02:18:08;100609.47;;;10.83;71.42
72096;BME280;59968;51.084;16.748;2024-02-15T02:20:39;100605.64;;;10.85;71.39
72096;BME280;59968;51.084;16.748;2024-02-15T02:23:15;100604.92;;;10.82;71.47
72096;BME280;59968;51.084;16.748;2024-02-15T02:25:44;100608.51;;;10.82;71.38
72096;BME280;59968;51.084;16.748;2024-02-15T02:28:15;100607.36;;;10.83;71.20
72096;BME280;59968;51.084;16.748;2024-02-15T02:30:46;100608.70;;;10.78;71.11
72096;BME280;59968;51.084;16.748;2024-02-15T02:33:18;100606.92;;;10.76;71.21
72096;BME280;59968;51.084;16.748;2024-02-15T02:35:51;100605.48;;;10.73;71.26
72096;BME280;59968;51.084;16.748;2024-02-15T02:38:20;100606.32;;;10.72;71.20
72096;BME280;59968;51.084;16.748;2024-02-15T02:40:49;100605.45;;;10.71;71.30
72096;BME280;59968;51.084;16.748;2024-02-15T02:43:17;100601.26;;;10.67;71.38
72096;BME280;59968;51.084;16.748;2024-02-15T02:45:46;100598.96;;;10.67;71.46
72096;BME280;59968;51.084;16.748;2024-02-15T02:48:15;100599.44;;;10.68;71.29
72096;BME280;59968;51.084;16.748;2024-02-15T02:50:49;100596.79;;;10.62;71.43
72096;BME280;59968;51.084;16.748;2024-02-15T02:53:20;100601.52;;;10.64;71.37
72096;BME280;59968;51.084;16.748;2024-02-15T02:55:51;100600.39;;;10.60;71.43
72096;BME280;59968;51.084;16.748;2024-02-15T02:58:23;100598.50;;;10.55;71.51
72096;BME280;59968;51.084;16.748;2024-02-15T03:00:55;100597.54;;;10.52;71.67
72096;BME280;59968;51.084;16.748;2024-02-15T03:03:24;100599.86;;;10.56;71.63
72096;BME280;59968;51.084;16.748;2024-02-15T03:05:59;100591.23;;;10.51;71.61
72096;BME280;59968;51.084;16.748;2024-02-15T03:08:28;100593.69;;;10.61;71.59
72096;BME280;59968;51.084;16.748;2024-02-15T03:11:07;100597.48;;;10.62;71.59
72096;BME280;59968;51.084;16.748;2024-02-15T03:13:36;100586.59;;;10.57;71.50
72096;BME280;59968;51.084;16.748;2024-02-15T03:16:05;100597.63;;;10.63;71.49
72096;BME280;59968;51.084;16.748;2024-02-15T03:18:33;100600.71;;;10.60;71.58
72096;BME280;59968;51.084;16.748;2024-02-15T03:21:03;100602.16;;;10.55;71.75
72096;BME280;59968;51.084;16.748;2024-02-15T03:23:32;100604.34;;;10.57;71.76
72096;BME280;59968;51.084;16.748;2024-02-15T03:26:01;100601.34;;;10.53;71.94
72096;BME280;59968;51.084;16.748;2024-02-15T03:28:32;100602.64;;;10.55;71.92
72096;BME280;59968;51.084;16.748;2024-02-15T03:31:03;100586.55;;;10.50;71.79
72096;BME280;59968;51.084;16.748;2024-02-15T03:33:31;100603.65;;;10.66;71.76
72096;BME280;59968;51.084;16.748;2024-02-15T03:36:03;100601.35;;;10.66;71.66
72096;BME280;59968;51.084;16.748;2024-02-15T03:38:31;100602.30;;;10.67;71.73
72096;BME280;59968;51.084;16.748;2024-02-15T03:41:00;100600.48;;;10.65;71.78
72096;BME280;59968;51.084;16.748;2024-02-15T03:43:30;100603.58;;;10.66;71.74
72096;BME280;59968;51.084;16.748;2024-02-15T03:45:59;100611.61;;;10.70;71.58
72096;BME280;59968;51.084;16.748;2024-02-15T03:48:31;100614.52;;;10.69;71.56
72096;BME280;59968;51.084;16.748;2024-02-15T03:51:04;100612.67;;;10.65;71.66
72096;BME280;59968;51.084;16.748;2024-02-15T03:53:34;100607.89;;;10.64;71.71
72096;BME280;59968;51.084;16.748;2024-02-15T03:56:05;100608.16;;;10.67;71.64
72096;BME280;59968;51.084;16.748;2024-02-15T03:58:38;100603.41;;;10.59;71.82
72096;BME280;59968;51.084;16.748;2024-02-15T04:01:06;100600.92;;;10.61;71.78
72096;BME280;59968;51.084;16.748;2024-02-15T04:03:38;100600.70;;;10.66;71.61
72096;BME280;59968;51.084;16.748;2024-02-15T04:06:09;100603.02;;;10.69;71.54
72096;BME280;59968;51.084;16.748;2024-02-15T04:08:39;100605.96;;;10.69;71.46
72096;BME280;59968;51.084;16.748;2024-02-15T04:11:08;100604.48;;;10.67;71.53
72096;BME280;59968;51.084;16.748;2024-02-15T04:13:38;100605.55;;;10.69;71.41
72096;BME280;59968;51.084;16.748;2024-02-15T04:16:09;100605.52;;;10.65;71.49
72096;BME280;59968;51.084;16.748;2024-02-15T04:18:38;100605.02;;;10.60;71.62
72096;BME280;59968;51.084;16.748;2024-02-15T04:21:07;100611.22;;;10.59;71.55
72096;BME280;59968;51.084;16.748;2024-02-15T04:23:37;100612.77;;;10.59;71.53
72096;BME280;59968;51.084;16.748;2024-02-15T04:26:06;100609.27;;;10.58;71.67
72096;BME280;59968;51.084;16.748;2024-02-15T04:28:42;100607.83;;;10.55;71.71
72096;BME280;59968;51.084;16.748;2024-02-15T04:31:11;100609.66;;;10.49;71.92
72096;BME280;59968;51.084;16.748;2024-02-15T04:33:41;100614.13;;;10.51;71.88
72096;BME280;59968;51.084;16.748;2024-02-15T04:36:10;100611.13;;;10.51;71.91
72096;BME280;59968;51.084;16.748;2024-02-15T04:38:52;100615.80;;;10.57;71.79
72096;BME280;59968;51.084;16.748;2024-02-15T04:41:21;100616.16;;;10.58;71.86
72096;BME280;59968;51.084;16.748;2024-02-15T04:43:53;100619.98;;;10.67;71.62
72096;BME280;59968;51.084;16.748;2024-02-15T04:46:22;100617.85;;;10.68;71.58
72096;BME280;59968;51.084;16.748;2024-02-15T04:48:51;100617.70;;;10.69;71.55
72096;BME280;59968;51.084;16.748;2024-02-15T04:51:20;100616.36;;;10.71;71.59
72096;BME280;59968;51.084;16.748;2024-02-15T04:53:49;100616.00;;;10.68;71.63
72096;BME280;59968;51.084;16.748;2024-02-15T04:56:20;100607.18;;;10.64;71.58
72096;BME280;59968;51.084;16.748;2024-02-15T04:58:49;100612.43;;;10.66;71.67
72096;BME280;59968;51.084;16.748;2024-02-15T05:01:19;100611.39;;;10.66;71.63
72096;BME280;59968;51.084;16.748;2024-02-15T05:03:48;100611.95;;;10.66;71.67
72096;BME280;59968;51.084;16.748;2024-02-15T05:06:35;100616.27;;;10.64;71.53
72096;BME280;59968;51.084;16.748;2024-02-15T05:09:06;100619.96;;;10.62;71.43
72096;BME280;59968;51.084;16.748;2024-02-15T05:11:41;100615.80;;;10.58;71.40
72096;BME280;59968;51.084;16.748;2024-02-15T05:14:15;100619.55;;;10.54;71.40
72096;BME280;59968;51.084;16.748;2024-02-15T05:16:52;100619.97;;;10.52;71.35
72096;BME280;59968;51.084;16.748;2024-02-15T05:19:21;100615.88;;;10.49;71.42
72096;BME280;59968;51.084;16.748;2024-02-15T05:21:50;100617.04;;;10.46;71.51
72096;BME280;59968;51.084;16.748;2024-02-15T05:24:19;100622.08;;;10.43;71.57
72096;BME280;59968;51.084;16.748;2024-02-15T05:26:49;100622.18;;;10.42;71.64
72096;BME280;59968;51.084;16.748;2024-02-15T05:29:19;100622.67;;;10.39;71.67
72096;BME280;59968;51.084;16.748;2024-02-15T05:31:49;100625.16;;;10.37;71.82
72096;BME280;59968;51.084;16.748;2024-02-15T05:34:20;100630.24;;;10.38;71.77
72096;BME280;59968;51.084;16.748;2024-02-15T05:36:49;100631.22;;;10.37;71.81
72096;BME280;59968;51.084;16.748;2024-02-15T05:39:18;100629.34;;;10.37;71.87
72096;BME280;59968;51.084;16.748;2024-02-15T05:41:50;100629.59;;;10.38;71.92
72096;BME280;59968;51.084;16.748;2024-02-15T05:44:19;100634.02;;;10.37;71.94
72096;BME280;59968;51.084;16.748;2024-02-15T05:46:49;100633.14;;;10.37;71.93
72096;BME280;59968;51.084;16.748;2024-02-15T05:49:18;100637.11;;;10.38;72.04
72096;BME280;59968;51.084;16.748;2024-02-15T05:51:50;100634.28;;;10.39;72.04
72096;BME280;59968;51.084;16.748;2024-02-15T05:54:19;100635.34;;;10.35;72.15
72096;BME280;59968;51.084;16.748;2024-02-15T05:56:51;100638.02;;;10.35;72.25
72096;BME280;59968;51.084;16.748;2024-02-15T05:59:21;100634.14;;;10.40;72.12
72096;BME280;59968;51.084;16.748;2024-02-15T06:01:49;100631.50;;;10.43;72.02
72096;BME280;59968;51.084;16.748;2024-02-15T06:04:18;100631.55;;;10.44;72.13
72096;BME280;59968;51.084;16.748;2024-02-15T06:06:48;100631.04;;;10.45;72.03
72096;BME280;59968;51.084;16.748;2024-02-15T06:09:19;100638.45;;;10.45;72.03
72096;BME280;59968;51.084;16.748;2024-02-15T06:11:51;100640.52;;;10.47;72.04
72096;BME280;59968;51.084;16.748;2024-02-15T06:14:24;100645.33;;;10.48;72.07
72096;BME280;59968;51.084;16.748;2024-02-15T06:16:52;100645.92;;;10.51;72.12
72096;BME280;59968;51.084;16.748;2024-02-15T06:19:23;100649.09;;;10.53;72.07
72096;BME280;59968;51.084;16.748;2024-02-15T06:21:53;100645.38;;;10.52;72.09
72096;BME280;59968;51.084;16.748;2024-02-15T06:24:22;100646.70;;;10.54;72.09
72096;BME280;59968;51.084;16.748;2024-02-15T06:26:52;100647.88;;;10.57;72.10
72096;BME280;59968;51.084;16.748;2024-02-15T06:29:28;100647.13;;;10.61;71.98
72096;BME280;59968;51.084;16.748;2024-02-15T06:32:16;100646.83;;;10.60;72.00
72096;BME280;59968;51.084;16.748;2024-02-15T06:35:05;100646.95;;;10.59;72.07
72096;BME280;59968;51.084;16.748;2024-02-15T06:37:52;100648.90;;;10.62;72.18
72096;BME280;59968;51.084;16.748;2024-02-15T06:40:40;100649.23;;;10.63;72.18
72096;BME280;59968;51.084;16.748;2024-02-15T06:43:10;100647.71;;;10.63;72.19
72096;BME280;59968;51.084;16.748;2024-02-15T06:45:40;100654.89;;;10.62;72.25
72096;BME280;59968;51.084;16.748;2024-02-15T06:48:16;100652.40;;;10.61;72.39
72096;BME280;59968;51.084;16.748;2024-02-15T06:50:48;100651.80;;;10.61;72.52
72096;BME280;59968;51.084;16.748;2024-02-15T06:53:18;100653.77;;;10.63;72.63
72096;BME280;59968;51.084;16.748;2024-02-15T06:55:49;100648.38;;;10.65;72.57
72096;BME280;59968;51.084;16.748;2024-02-15T06:58:17;100653.77;;;10.66;72.52
72096;BME280;59968;51.084;16.748;2024-02-15T07:00:48;100636.88;;;10.61;72.51
72096;BME280;59968;51.084;16.748;2024-02-15T07:03:28;100637.73;;;10.61;72.59
72096;BME280;59968;51.084;16.748;2024-02-15T07:05:58;100652.55;;;10.70;72.69
72096;BME280;59968;51.084;16.748;2024-02-15T07:08:31;100652.31;;;10.77;72.70
72096;BME280;59968;51.084;16.748;2024-02-15T07:11:00;100651.73;;;10.81;72.66
72096;BME280;59968;51.084;16.748;2024-02-15T07:13:33;100654.75;;;10.86;72.68
72096;BME280;59968;51.084;16.748;2024-02-15T07:16:06;100654.03;;;10.90;72.72
72096;BME280;59968;51.084;16.748;2024-02-15T07:18:36;100650.70;;;10.93;72.76
72096;BME280;59968;51.084;16.748;2024-02-15T07:21:05;100651.65;;;10.98;72.74
72096;BME280;59968;51.084;16.748;2024-02-15T07:23:40;100649.02;;;11.04;72.70
72096;BME280;59968;51.084;16.748;2024-02-15T07:26:10;100649.10;;;11.09;72.65
72096;BME280;59968;51.084;16.748;2024-02-15T07:28:41;100647.42;;;11.14;72.60
72096;BME280;59968;51.084;16.748;2024-02-15T07:31:11;100651.70;;;11.19;72.46
72096;BME280;59968;51.084;16.748;2024-02-15T07:33:41;100654.11;;;11.23;72.46
72096;BME280;59968;51.084;16.748;2024-02-15T07:36:12;100657.48;;;11.28;72.39
72096;BME280;59968;51.084;16.748;2024-02-15T07:38:41;100653.33;;;11.32;72.36
72096;BME280;59968;51.084;16.748;2024-02-15T07:41:11;100655.38;;;11.34;72.36
72096;BME280;59968;51.084;16.748;2024-02-15T07:43:42;100652.39;;;11.36;72.36
72096;BME280;59968;51.084;16.748;2024-02-15T07:46:14;100658.63;;;11.39;72.28
72096;BME280;59968;51.084;16.748;2024-02-15T07:48:45;100657.61;;;11.43;72.24
72096;BME280;59968;51.084;16.748;2024-02-15T07:51:16;100655.42;;;11.46;72.18
72096;BME280;59968;51.084;16.748;2024-02-15T07:53:48;100655.90;;;11.51;72.16
72096;BME280;59968;51.084;16.748;2024-02-15T07:56:18;100658.33;;;11.55;72.11
72096;BME280;59968;51.084;16.748;2024-02-15T07:58:48;100660.59;;;11.61;71.91
72096;BME280;59968;51.084;16.748;2024-02-15T08:01:21;100662.64;;;11.64;71.77
72096;BME280;59968;51.084;16.748;2024-02-15T08:03:53;100666.52;;;11.67;71.81
72096;BME280;59968;51.084;16.748;2024-02-15T08:06:23;100669.77;;;11.70;71.84
72096;BME280;59968;51.084;16.748;2024-02-15T08:08:57;100669.59;;;11.73;71.77
72096;BME280;59968;51.084;16.748;2024-02-15T08:11:27;100664.45;;;11.75;71.81
72096;BME280;59968;51.084;16.748;2024-02-15T08:13:56;100666.10;;;11.77;71.76
72096;BME280;59968;51.084;16.748;2024-02-15T08:16:29;100666.82;;;11.80;71.92
72096;BME280;59968;51.084;16.748;2024-02-15T08:18:57;100664.91;;;11.83;71.89
72096;BME280;59968;51.084;16.748;2024-02-15T08:21:28;100668.45;;;11.90;71.71
72096;BME280;59968;51.084;16.748;2024-02-15T08:23:59;100667.65;;;11.96;71.73
72096;BME280;59968;51.084;16.748;2024-02-15T08:26:29;100667.66;;;12.02;71.38
72096;BME280;59968;51.084;16.748;2024-02-15T08:28:58;100666.33;;;12.07;71.24
72096;BME280;59968;51.084;16.748;2024-02-15T08:31:27;100663.60;;;12.09;71.16
72096;BME280;59968;51.084;16.748;2024-02-15T08:33:57;100664.14;;;12.12;71.14
72096;BME280;59968;51.084;16.748;2024-02-15T08:36:27;100664.36;;;12.16;71.15
72096;BME280;59968;51.084;16.748;2024-02-15T08:38:56;100666.23;;;12.20;71.05
72096;BME280;59968;51.084;16.748;2024-02-15T08:41:25;100668.16;;;12.24;71.01
72096;BME280;59968;51.084;16.748;2024-02-15T08:43:55;100668.92;;;12.27;70.76
72096;BME280;59968;51.084;16.748;2024-02-15T08:46:29;100673.33;;;12.34;70.71
72096;BME280;59968;51.084;16.748;2024-02-15T08:48:59;100674.38;;;12.38;70.82
72096;BME280;59968;51.084;16.748;2024-02-15T08:51:29;100676.06;;;12.44;70.59
72096;BME280;59968;51.084;16.748;2024-02-15T08:53:59;100676.09;;;12.49;70.45
72096;BME280;59968;51.084;16.748;2024-02-15T08:56:28;100678.27;;;12.54;70.27
72096;BME280;59968;51.084;16.748;2024-02-15T08:58:57;100680.04;;;12.57;70.16
72096;BME280;59968;51.084;16.748;2024-02-15T09:01:30;100679.67;;;12.62;70.11
72096;BME280;59968;51.084;16.748;2024-02-15T09:03:58;100680.33;;;12.66;69.98
72096;BME280;59968;51.084;16.748;2024-02-15T09:06:27;100680.34;;;12.69;70.09
72096;BME280;59968;51.084;16.748;2024-02-15T09:08:56;100681.92;;;12.71;69.95
72096;BME280;59968;51.084;16.748;2024-02-15T09:11:29;100683.11;;;12.76;69.84
72096;BME280;59968;51.084;16.748;2024-02-15T09:13:59;100686.84;;;12.78;69.69
72096;BME280;59968;51.084;16.748;2024-02-15T09:16:27;100682.02;;;12.80;69.73
72096;BME280;59968;51.084;16.748;2024-02-15T09:18:56;100685.30;;;12.84;69.64
72096;BME280;59968;51.084;16.748;2024-02-15T09:21:29;100685.45;;;12.88;69.61
72096;BME280;59968;51.084;16.748;2024-02-15T09:24:01;100681.36;;;12.92;69.57
72096;BME280;59968;51.084;16.748;2024-02-15T09:26:30;100683.30;;;12.97;69.55
72096;BME280;59968;51.084;16.748;2024-02-15T09:28:59;100682.56;;;13.02;69.21
72096;BME280;59968;51.084;16.748;2024-02-15T09:31:27;100687.84;;;13.05;69.30
72096;BME280;59968;51.084;16.748;2024-02-15T09:33:56;100685.83;;;13.10;69.26
72096;BME280;59968;51.084;16.748;2024-02-15T09:36:27;100688.70;;;13.15;69.10
72096;BME280;59968;51.084;16.748;2024-02-15T09:38:57;100686.59;;;13.22;69.16
72096;BME280;59968;51.084;16.748;2024-02-15T09:41:27;100690.84;;;13.29;69.31
72096;BME280;59968;51.084;16.748;2024-02-15T09:43:57;100689.83;;;13.35;69.33
72096;BME280;59968;51.084;16.748;2024-02-15T09:46:26;100690.63;;;13.40;69.59
72096;BME280;59968;51.084;16.748;2024-02-15T09:48:58;100690.23;;;13.47;69.64
72096;BME280;59968;51.084;16.748;2024-02-15T09:51:28;100690.66;;;13.54;69.38
72096;BME280;59968;51.084;16.748;2024-02-15T09:54:00;100690.27;;;13.60;69.60
72096;BME280;59968;51.084;16.748;2024-02-15T09:56:31;100692.20;;;13.67;69.34
72096;BME280;59968;51.084;16.748;2024-02-15T09:59:01;100683.83;;;13.72;69.34
72096;BME280;59968;51.084;16.748;2024-02-15T10:01:31;100688.41;;;13.76;69.42
72096;BME280;59968;51.084;16.748;2024-02-15T10:04:04;100689.84;;;13.79;69.74
72096;BME280;59968;51.084;16.748;2024-02-15T10:06:35;100687.77;;;13.80;69.95
72096;BME280;59968;51.084;16.748;2024-02-15T10:09:23;100690.05;;;13.82;70.20
72096;BME280;59968;51.084;16.748;2024-02-15T10:11:55;100690.36;;;13.81;70.71
72096;BME280;59968;51.084;16.748;2024-02-15T10:14:30;100689.15;;;13.79;71.18
72096;BME280;59968;51.084;16.748;2024-02-15T10:17:07;100688.79;;;13.80;71.72
72096;BME280;59968;51.084;16.748;2024-02-15T10:19:40;100687.55;;;13.80;72.29
72096;BME280;59968;51.084;16.748;2024-02-15T10:22:12;100682.34;;;13.77;72.58
72096;BME280;59968;51.084;16.748;2024-02-15T10:24:43;100679.86;;;13.76;72.57
72096;BME280;59968;51.084;16.748;2024-02-15T10:27:12;100682.81;;;13.73;72.73
72096;BME280;59968;51.084;16.748;2024-02-15T10:29:44;100679.02;;;13.72;72.73
72096;BME280;59968;51.084;16.748;2024-02-15T10:32:14;100674.67;;;13.73;72.77
72096;BME280;59968;51.084;16.748;2024-02-15T10:34:44;100671.62;;;13.72;72.76
72096;BME280;59968;51.084;16.748;2024-02-15T10:37:16;100669.34;;;13.70;73.01
72096;BME280;59968;51.084;16.748;2024-02-15T10:39:45;100668.61;;;13.75;73.11
72096;BME280;59968;51.084;16.748;2024-02-15T10:42:16;100669.50;;;13.83;72.90
72096;BME280;59968;51.084;16.748;2024-02-15T10:44:47;100666.89;;;13.88;72.87
72096;BME280;59968;51.084;16.748;2024-02-15T10:47:18;100664.80;;;13.91;73.16
72096;BME280;59968;51.084;16.748;2024-02-15T10:49:49;100655.05;;;13.98;73.21
72096;BME280;59968;51.084;16.748;2024-02-15T10:52:19;100656.65;;;14.09;72.98
72096;BME280;59968;51.084;16.748;2024-02-15T10:54:58;100653.09;;;14.28;72.46
72096;BME280;59968;51.084;16.748;2024-02-15T10:57:32;100648.73;;;14.42;72.12
72096;BME280;59968;51.084;16.748;2024-02-15T11:00:02;100652.42;;;14.56;72.01
72096;BME280;59968;51.084;16.748;2024-02-15T11:02:50;100650.19;;;14.67;71.58
72096;BME280;59968;51.084;16.748;2024-02-15T11:05:21;100651.55;;;14.77;70.83
72096;BME280;59968;51.084;16.748;2024-02-15T11:07:52;100651.09;;;14.82;70.00
72096;BME280;59968;51.084;16.748;2024-02-15T11:10:25;100647.10;;;14.84;69.85
72096;BME280;59968;51.084;16.748;2024-02-15T11:12:56;100637.19;;;14.79;69.25
72096;BME280;59968;51.084;16.748;2024-02-15T11:15:39;100645.88;;;14.86;69.14
72096;BME280;59968;51.084;16.748;2024-02-15T11:18:10;100647.16;;;14.88;69.01
72096;BME280;59968;51.084;16.748;2024-02-15T11:23:11;100643.98;;;14.97;68.76
72096;BME280;59968;51.084;16.748;2024-02-15T11:25:49;100641.84;;;15.05;68.63
72096;BME280;59968;51.084;16.748;2024-02-15T11:28:38;100639.68;;;15.12;68.33
72096;BME280;59968;51.084;16.748;2024-02-15T11:31:08;100637.18;;;15.19;68.11
72096;BME280;59968;51.084;16.748;2024-02-15T11:33:38;100632.60;;;15.25;67.79
72096;BME280;59968;51.084;16.748;2024-02-15T11:36:09;100632.75;;;15.33;67.48
72096;BME280;59968;51.084;16.748;2024-02-15T11:38:40;100624.16;;;15.43;67.42
72096;BME280;59968;51.084;16.748;2024-02-15T11:41:10;100620.48;;;15.53;67.03
72096;BME280;59968;51.084;16.748;2024-02-15T11:48:47;100615.48;;;15.70;65.59
72096;BME280;59968;51.084;16.748;2024-02-15T11:51:34;100615.09;;;15.78;65.52
72096;BME280;59968;51.084;16.748;2024-02-15T11:54:12;100607.91;;;15.79;65.18
72096;BME280;59968;51.084;16.748;2024-02-15T11:59:17;100613.50;;;15.89;64.94
72096;BME280;59968;51.084;16.748;2024-02-15T12:02:03;100613.75;;;15.92;64.78
72096;BME280;59968;51.084;16.748;2024-02-15T12:04:50;100611.98;;;15.95;64.38
72096;BME280;59968;51.084;16.748;2024-02-15T12:07:38;100609.19;;;15.94;64.07
72096;BME280;59968;51.084;16.748;2024-02-15T12:10:26;100605.50;;;15.88;63.80
72096;BME280;59968;51.084;16.748;2024-02-15T12:13:17;100609.16;;;15.88;63.82
72096;BME280;59968;51.084;16.748;2024-02-15T12:16:05;100607.21;;;15.86;64.18
72096;BME280;59968;51.084;16.748;2024-02-15T12:18:53;100606.64;;;15.82;64.00
72096;BME280;59968;51.084;16.748;2024-02-15T12:21:25;100608.45;;;15.78;64.11
72096;BME280;59968;51.084;16.748;2024-02-15T12:23:56;100607.27;;;15.70;64.19
72096;BME280;59968;51.084;16.748;2024-02-15T12:26:25;100604.39;;;15.67;64.30
72096;BME280;59968;51.084;16.748;2024-02-15T12:28:56;100603.67;;;15.68;64.31
72096;BME280;59968;51.084;16.748;2024-02-15T12:31:27;100604.71;;;15.64;64.47
72096;BME280;59968;51.084;16.748;2024-02-15T12:34:01;100599.55;;;15.65;64.32
72096;BME280;59968;51.084;16.748;2024-02-15T12:36:30;100599.94;;;15.67;64.55
72096;BME280;59968;51.084;16.748;2024-02-15T12:39:06;100589.74;;;15.69;64.18
72096;BME280;59968;51.084;16.748;2024-02-15T12:41:49;100589.52;;;15.68;63.88
72096;BME280;59968;51.084;16.748;2024-02-15T12:44:19;100590.59;;;15.69;64.23
72096;BME280;59968;51.084;16.748;2024-02-15T12:46:54;100591.93;;;15.77;63.76
72096;BME280;59968;51.084;16.748;2024-02-15T12:51:54;100595.58;;;15.90;63.47
72096;BME280;59968;51.084;16.748;2024-02-15T12:54:42;100589.13;;;15.91;62.94
72096;BME280;59968;51.084;16.748;2024-02-15T12:57:13;100587.41;;;15.90;62.82
72096;BME280;59968;51.084;16.748;2024-02-15T12:59:45;100584.49;;;15.87;63.03
72096;BME280;59968;51.084;16.748;2024-02-15T13:02:14;100570.81;;;15.79;62.71
72096;BME280;59968;51.084;16.748;2024-02-15T13:04:43;100581.83;;;15.85;62.72
72096;BME280;59968;51.084;16.748;2024-02-15T13:07:12;100574.77;;;15.90;63.15
72096;BME280;59968;51.084;16.748;2024-02-15T13:09:42;100570.31;;;16.01;63.40
72096;BME280;59968;51.084;16.748;2024-02-15T13:12:12;100573.92;;;16.13;63.22
72096;BME280;59968;51.084;16.748;2024-02-15T13:14:41;100574.41;;;16.19;62.98